createdAt,value
2023-05-18T00:04:08.145Z,101591.63
2023-05-18T00:09:11.041Z,101588.44
2023-05-18T00:14:13.835Z,101590.53
2023-05-18T00:19:18.333Z,101584.06
2023-05-18T00:24:21.239Z,101586.59
2023-05-18T00:29:24.066Z,101595.06
2023-05-18T00:34:28.283Z,101590.25
2023-05-18T00:39:31.116Z,101588.63
2023-05-18T00:44:33.916Z,101585.97
2023-05-18T00:49:38.134Z,101587.81
2023-05-18T00:54:41.126Z,101590.63
2023-05-18T00:59:43.981Z,101589.13
2023-05-18T01:04:48.168Z,101587.59
2023-05-18T01:09:50.985Z,101587.59
2023-05-18T01:15:01.944Z,101587.97
2023-05-18T01:20:27.636Z,101587.25
2023-05-18T01:25:40.919Z,101596.56
2023-05-18T01:30:46.168Z,101586.00
2023-05-18T01:35:49.084Z,101584.22
2023-05-18T01:41:01.025Z,101589.41
2023-05-18T01:46:14.758Z,101583.59
2023-05-18T01:51:22.422Z,101589.28
2023-05-18T01:56:26.771Z,101595.13
2023-05-18T02:01:31.490Z,101589.75
2023-05-18T02:06:34.378Z,101585.59
2023-05-18T02:11:37.230Z,101593.06
2023-05-18T02:16:41.642Z,101593.50
2023-05-18T02:21:44.721Z,101591.53
2023-05-18T02:26:47.529Z,101590.28
2023-05-18T02:31:51.789Z,101592.13
2023-05-18T02:36:57.928Z,101592.63
2023-05-18T02:42:01.655Z,101595.75
2023-05-18T02:47:06.384Z,101600.09
2023-05-18T02:52:09.950Z,101602.06
2023-05-18T02:57:13.883Z,101604.81
2023-05-18T03:02:25.545Z,101608.47
2023-05-18T03:07:28.538Z,101602.31
2023-05-18T03:12:32.491Z,101604.47
2023-05-18T03:17:36.952Z,101611.66
2023-05-18T03:22:40.116Z,101611.59
2023-05-18T03:27:43.200Z,101624.63
2023-05-18T03:32:48.439Z,101621.44
2023-05-18T03:37:52.261Z,101627.75
2023-05-18T03:42:55.103Z,101626.81
2023-05-18T03:47:59.465Z,101619.88
2023-05-18T03:53:02.350Z,101625.16
2023-05-18T03:58:05.236Z,101623.06
2023-05-18T04:03:12.806Z,101628.78
2023-05-18T04:08:15.738Z,101632.13
2023-05-18T04:13:18.763Z,101636.50
2023-05-18T04:18:22.947Z,101632.81
2023-05-18T04:23:25.854Z,101638.66
2023-05-18T04:28:29.246Z,101645.16
2023-05-18T04:33:34.174Z,101638.66
2023-05-18T04:38:37.226Z,101647.16
2023-05-18T04:43:41.701Z,101644.50
2023-05-18T04:48:49.942Z,101642.41
2023-05-18T04:53:53.183Z,101641.47
2023-05-18T04:58:59.331Z,101640.69
2023-05-18T05:04:06.974Z,101651.41
2023-05-18T05:09:09.973Z,101645.94
2023-05-18T05:14:14.543Z,101643.13
2023-05-18T05:19:18.879Z,101650.94
2023-05-18T05:24:21.835Z,101658.78
2023-05-18T05:29:26.397Z,101642.13
2023-05-18T05:34:31.185Z,101651.66
2023-05-18T05:39:35.328Z,101655.38
2023-05-18T05:44:39.398Z,101657.50
2023-05-18T05:49:43.848Z,101660.97
2023-05-18T05:54:46.991Z,101653.31
2023-05-18T05:59:50.843Z,101660.50
2023-05-18T06:04:55.318Z,101660.84
2023-05-18T06:09:58.515Z,101664.91
2023-05-18T06:15:01.473Z,101657.19
2023-05-18T06:20:07.189Z,101670.97
2023-05-18T06:25:11.710Z,101668.50
2023-05-18T06:30:26.015Z,101669.09
2023-05-18T06:35:41.207Z,101677.78
2023-05-18T06:40:44.475Z,101668.50
2023-05-18T06:45:47.671Z,101685.38
2023-05-18T06:51:10.737Z,101687.13
2023-05-18T06:56:13.893Z,101687.41
2023-05-18T07:01:19.423Z,101685.13
2023-05-18T07:06:23.727Z,101688.09
2023-05-18T07:11:29.532Z,101692.03
2023-05-18T07:16:32.833Z,101689.28
2023-05-18T07:21:38.032Z,101678.28
2023-05-18T07:26:40.953Z,101690.41
2023-05-18T07:31:44.857Z,101696.75
2023-05-18T07:36:49.101Z,101685.56
2023-05-18T07:41:52.198Z,101684.81
2023-05-18T07:46:55.231Z,101683.06
2023-05-18T07:52:00.465Z,101685.88
2023-05-18T07:57:04.227Z,101679.09
2023-05-18T08:02:07.659Z,101675.19
2023-05-18T08:07:12.647Z,101679.94
2023-05-18T08:12:15.498Z,101675.78
2023-05-18T08:17:19.597Z,101676.47
2023-05-18T08:22:24.090Z,101675.50
2023-05-18T08:27:27.008Z,101675.09
2023-05-18T08:32:29.890Z,101662.69
2023-05-18T08:37:34.159Z,101656.91
2023-05-18T08:42:49.492Z,101656.03
2023-05-18T08:47:57.424Z,101663.66
2023-05-18T08:53:05.889Z,101652.84
2023-05-18T08:58:10.280Z,101651.22
2023-05-18T09:03:14.271Z,101650.59
2023-05-18T09:08:19.978Z,101649.00
2023-05-18T09:13:23.184Z,101641.75
2023-05-18T09:18:28.145Z,101636.97
2023-05-18T09:23:34.038Z,101635.91
2023-05-18T09:28:38.553Z,101637.16
2023-05-18T09:33:41.850Z,101629.13
2023-05-18T09:38:47.256Z,101627.00
2023-05-18T09:43:50.805Z,101627.47
2023-05-18T09:48:55.209Z,101621.16
2023-05-18T09:54:00.184Z,101619.72
2023-05-18T09:59:10.914Z,101619.16
2023-05-18T10:04:13.826Z,101616.31
2023-05-18T10:09:18.477Z,101613.22
2023-05-18T10:14:25.455Z,101614.78
2023-05-18T10:19:29.425Z,101604.69
2023-05-18T10:24:37.588Z,101608.56
2023-05-18T10:29:41.110Z,101611.94
2023-05-18T10:34:45.324Z,101607.13
2023-05-18T10:39:52.071Z,101609.91
2023-05-18T10:44:55.764Z,101599.13
2023-05-18T10:50:00.487Z,101595.28
2023-05-18T10:55:05.155Z,101589.66
2023-05-18T11:00:10.479Z,101582.53
2023-05-18T11:05:13.961Z,101585.13
2023-05-18T11:10:18.235Z,101572.78
2023-05-18T11:15:21.117Z,101579.09
2023-05-18T11:20:26.863Z,101579.84
2023-05-18T11:25:43.343Z,101566.38
2023-05-18T11:30:51.300Z,101563.31
2023-05-18T11:36:13.636Z,101558.31
2023-05-18T11:41:32.249Z,101551.22
2023-05-18T11:46:35.242Z,101556.59
2023-05-18T11:51:58.583Z,101556.59
2023-05-18T11:57:03.534Z,101543.94
2023-05-18T12:02:07.150Z,101542.19
2023-05-18T12:07:10.769Z,101531.97
2023-05-18T12:12:19.896Z,101545.03
2023-05-18T12:17:24.379Z,101530.34
2023-05-18T12:22:28.142Z,101533.81
2023-05-18T12:27:32.498Z,101528.66
2023-05-18T12:32:35.951Z,101520.66
2023-05-18T12:37:45.045Z,101516.94
2023-05-18T12:42:59.456Z,101513.22
2023-05-18T12:48:06.151Z,101505.69
2023-05-18T12:53:09.170Z,101507.38
2023-05-18T12:58:16.549Z,101511.00
2023-05-18T13:03:22.029Z,101505.31
2023-05-18T13:08:25.569Z,101495.72
2023-05-18T13:13:29.839Z,101496.97
2023-05-18T13:18:32.743Z,101496.91
2023-05-18T13:23:35.603Z,101482.59
2023-05-18T13:28:39.988Z,101476.25
2023-05-18T13:33:42.847Z,101484.88
2023-05-18T13:38:45.734Z,101475.69
2023-05-18T13:43:49.928Z,101465.81
2023-05-18T13:48:52.803Z,101461.47
2023-05-18T13:53:55.702Z,101457.00
2023-05-18T13:58:59.905Z,101460.03
2023-05-18T14:04:02.785Z,101445.59
2023-05-18T14:09:05.621Z,101442.19
2023-05-18T14:14:09.831Z,101436.75
2023-05-18T14:19:12.868Z,101429.63
2023-05-18T14:24:15.738Z,101423.50
2023-05-18T14:29:20.220Z,101421.94
2023-05-18T14:34:23.154Z,101415.34
2023-05-18T14:39:26.049Z,101423.75
2023-05-18T14:44:30.232Z,101420.78
2023-05-18T14:49:33.097Z,101418.91
2023-05-18T14:54:36.610Z,101415.72
2023-05-18T14:59:40.782Z,101416.34
2023-05-18T15:04:43.660Z,101404.69
2023-05-18T15:09:46.521Z,101404.38
2023-05-18T15:14:50.680Z,101398.13
2023-05-18T15:19:53.461Z,101406.72
2023-05-18T15:24:56.284Z,101406.88
2023-05-18T15:30:01.219Z,101399.00
2023-05-18T15:35:04.351Z,101394.78
2023-05-18T15:40:08.408Z,101391.56
2023-05-18T15:45:13.490Z,101383.28
2023-05-18T15:50:16.278Z,101387.38
2023-05-18T15:55:19.169Z,101384.53
2023-05-18T16:00:23.839Z,101381.53
2023-05-18T16:05:26.657Z,101388.97
2023-05-18T16:10:29.894Z,101383.31
2023-05-18T16:15:37.539Z,101377.97
2023-05-18T16:20:40.498Z,101377.63
2023-05-18T16:25:43.380Z,101372.38
2023-05-18T16:30:47.664Z,101373.81
2023-05-18T16:35:50.582Z,101377.03
2023-05-18T16:40:53.385Z,101372.47
2023-05-18T16:45:57.744Z,101370.81
2023-05-18T16:51:00.871Z,101363.91
2023-05-18T16:56:04.979Z,101361.50
2023-05-18T17:01:19.392Z,101365.13
2023-05-18T17:06:30.052Z,101354.44
2023-05-18T17:11:32.863Z,101355.91
2023-05-18T17:16:40.950Z,101354.28
2023-05-18T17:21:43.781Z,101365.13
2023-05-18T17:26:46.718Z,101369.25
2023-05-18T17:31:51.012Z,101370.81
2023-05-18T17:36:54.988Z,101364.41
2023-05-18T17:42:00.047Z,101364.53
2023-05-18T17:47:04.781Z,101370.50
2023-05-18T17:52:08.146Z,101361.44
2023-05-18T17:57:10.968Z,101366.22
2023-05-18T18:02:15.419Z,101374.00
2023-05-18T18:07:18.292Z,101376.75
2023-05-18T18:12:21.142Z,101374.47
2023-05-18T18:17:25.825Z,101384.91
2023-05-18T18:22:28.713Z,101387.56
2023-05-18T18:27:31.552Z,101392.72
2023-05-18T18:32:35.914Z,101401.50
2023-05-18T18:37:38.754Z,101396.63
2023-05-18T18:42:41.666Z,101403.13
2023-05-18T18:47:45.901Z,101402.47
2023-05-18T18:52:49.044Z,101411.13
2023-05-18T18:57:52.952Z,101412.53
2023-05-18T19:02:57.273Z,101408.16
2023-05-18T19:08:01.683Z,101422.31
2023-05-18T19:13:06.179Z,101431.66
2023-05-18T19:18:10.507Z,101426.63
2023-05-18T19:23:13.336Z,101433.75
2023-05-18T19:28:16.325Z,101438.41
2023-05-18T19:33:20.600Z,101443.91
2023-05-18T19:38:23.497Z,101448.19
2023-05-18T19:43:26.295Z,101447.19
2023-05-18T19:48:31.368Z,101453.81
2023-05-18T19:53:34.456Z,101456.13
2023-05-18T19:58:37.282Z,101452.94
2023-05-18T20:03:43.521Z,101450.91
2023-05-18T20:08:46.716Z,101463.28
2023-05-18T20:13:49.735Z,101461.81
2023-05-18T20:18:53.984Z,101465.13
2023-05-18T20:23:56.824Z,101465.06
2023-05-18T20:28:59.968Z,101473.31
2023-05-18T20:34:04.195Z,101481.78
2023-05-18T20:39:07.347Z,101482.88
2023-05-18T20:44:11.130Z,101483.31
2023-05-18T20:49:15.481Z,101490.63
2023-05-18T20:54:18.906Z,101486.53
2023-05-18T20:59:21.909Z,101483.41
2023-05-18T21:04:26.153Z,101489.09
2023-05-18T21:09:31.230Z,101490.72
2023-05-18T21:14:34.133Z,101487.63
2023-05-18T21:19:38.362Z,101484.47
2023-05-18T21:24:41.212Z,101491.28
2023-05-18T21:29:44.553Z,101487.50
2023-05-18T21:34:48.827Z,101480.78
2023-05-18T21:39:51.710Z,101490.06
2023-05-18T21:44:54.832Z,101488.53
2023-05-18T21:49:59.031Z,101493.81
2023-05-18T21:55:01.930Z,101493.38
2023-05-18T22:00:06.362Z,101487.13
2023-05-18T22:05:16.942Z,101490.09
2023-05-18T22:10:20.121Z,101488.47
2023-05-18T22:15:24.012Z,101491.34
2023-05-18T22:20:28.348Z,101489.34
2023-05-18T22:25:32.403Z,101485.63
2023-05-18T22:30:35.453Z,101482.78
2023-05-18T22:35:39.750Z,101482.97
2023-05-18T22:40:42.567Z,101480.34
2023-05-18T22:45:45.455Z,101481.72
2023-05-18T22:50:49.748Z,101472.22
2023-05-18T22:55:52.798Z,101471.53
2023-05-18T23:00:56.056Z,101468.25
2023-05-18T23:06:02.982Z,101466.94
2023-05-18T23:11:06.042Z,101469.13
2023-05-18T23:16:10.486Z,101478.28
2023-05-18T23:21:14.892Z,101474.03
2023-05-18T23:26:17.914Z,101476.34
2023-05-18T23:31:22.008Z,101477.47
2023-05-18T23:36:30.401Z,101482.09
2023-05-18T23:41:35.241Z,101475.75
2023-05-18T23:46:38.776Z,101473.16
2023-05-18T23:51:44.325Z,101476.25
2023-05-18T23:56:48.111Z,101473.56
